Time;durP1;ratioP1;P1;durP2;ratioP2;P2;SDS_P1;SDS_P2;PMS_P1;PMS_P2;Temp;Humidity;BMP_temperature;BMP_pressure;BME280_temperature;BME280_humidity;BME280_pressure;Samples;Min_cycle;Max_cycle;Signal;HPM_P1;HPM_P2
2022/04/27 00:02:02;;;;;;;;;11.25;11.25;;;;;-143.93;100.00;62969.28;4992232;28;8834;-68
2022/04/27 00:04:28;;;;;;;;;9.50;8.50;;;;;-143.93;100.00;62969.28;4995256;28;8811;-68
2022/04/27 00:06:53;;;;;;;;;21.75;15.50;;;;;-143.93;100.00;62969.28;4994888;28;8811;-68
2022/04/27 00:09:18;;;;;;;;;11.50;10.50;;;;;-143.93;100.00;62969.28;4995146;28;8840;-68
2022/04/27 00:11:44;;;;;;;;;18.00;14.75;;;;;-143.93;100.00;62969.28;5006569;28;8950;-68
2022/04/27 00:14:09;;;;;;;;;14.00;14.00;;;;;-143.93;100.00;62969.28;5006512;28;8828;-68
2022/04/27 00:16:34;;;;;;;;;14.25;11.50;;;;;-143.93;100.00;62969.28;4999068;28;8857;-68
2022/04/27 00:19:01;;;;;;;;;16.00;13.25;;;;;-143.93;100.00;62969.28;5047475;27;9390;-68
2022/04/27 00:21:26;;;;;;;;;13.75;13.75;;;;;-143.93;100.00;62969.28;5039726;27;8805;-68
2022/04/27 00:23:52;;;;;;;;;16.00;14.25;;;;;-143.93;100.00;62969.28;5005889;28;8906;-68
2022/04/27 00:26:17;;;;;;;;;14.50;12.50;;;;;-143.93;100.00;62969.28;4991012;28;8850;-68
2022/04/27 00:28:42;;;;;;;;;16.00;15.50;;;;;-143.93;100.00;62969.28;4993432;28;8804;-67
2022/04/27 00:31:08;;;;;;;;;15.50;10.25;;;;;-143.93;100.00;62969.28;4994440;28;8846;-68
2022/04/27 00:33:33;;;;;;;;;16.75;13.50;;;;;-143.93;100.00;62969.28;4994567;28;8812;-68
2022/04/27 00:35:58;;;;;;;;;17.25;13.75;;;;;-143.93;100.00;62969.28;4994511;28;8908;-68
2022/04/27 00:38:24;;;;;;;;;16.00;12.00;;;;;-143.93;100.00;62969.28;5002341;28;8843;-67
2022/04/27 00:40:49;;;;;;;;;12.75;8.75;;;;;-143.93;100.00;62969.28;5004829;28;8802;-68
2022/04/27 00:43:15;;;;;;;;;16.00;13.50;;;;;-143.93;100.00;62969.28;5002615;28;8870;-68
2022/04/27 00:45:41;;;;;;;;;16.25;13.50;;;;;-143.93;100.00;62969.28;5002320;28;8899;-68
2022/04/27 00:48:07;;;;;;;;;16.25;15.00;;;;;-143.93;100.00;62969.28;5007026;28;8797;-69
2022/04/27 00:50:32;;;;;;;;;22.00;17.25;;;;;-143.93;100.00;62969.28;5002228;28;8848;-67
2022/04/27 00:52:59;;;;;;;;;20.25;14.25;;;;;-143.93;100.00;62969.28;5008660;28;8920;-67
2022/04/27 00:55:25;;;;;;;;;22.25;17.00;;;;;-143.93;100.00;62969.28;5034607;28;8837;-67
2022/04/27 00:57:51;;;;;;;;;20.00;18.00;;;;;-143.93;100.00;62969.28;5021300;27;8922;-67
2022/04/27 01:00:17;;;;;;;;;17.50;15.50;;;;;-143.93;100.00;62969.28;5001797;28;8829;-67
2022/04/27 01:02:43;;;;;;;;;19.00;16.75;;;;;-143.93;100.00;62969.28;5005974;28;8754;-67
2022/04/27 01:05:11;;;;;;;;;16.00;13.25;;;;;-143.93;100.00;62969.28;5004532;28;8903;-67
2022/04/27 01:07:38;;;;;;;;;21.50;16.00;;;;;-143.93;100.00;62969.28;5004739;28;8818;-67
2022/04/27 01:10:05;;;;;;;;;15.00;12.50;;;;;-143.93;100.00;62969.28;5002265;28;8790;-67
2022/04/27 01:12:31;;;;;;;;;17.00;13.75;;;;;-143.93;100.00;62969.28;5002237;28;8782;-67
2022/04/27 01:14:56;;;;;;;;;19.50;16.25;;;;;-143.93;100.00;62969.28;5001888;28;8815;-67
2022/04/27 01:17:22;;;;;;;;;15.00;11.25;;;;;-143.93;100.00;62969.28;5006849;28;8842;-67
2022/04/27 01:19:47;;;;;;;;;15.25;12.00;;;;;-143.93;100.00;62969.28;5004298;28;8805;-67
2022/04/27 01:22:13;;;;;;;;;18.25;13.00;;;;;-143.93;100.00;62969.28;5001936;28;8793;-67
2022/04/27 01:24:40;;;;;;;;;16.00;14.00;;;;;-143.93;100.00;62969.28;5003830;28;8837;-67
2022/04/27 01:27:05;;;;;;;;;9.00;8.25;;;;;-143.93;100.00;62969.28;4999098;28;8959;-69
2022/04/27 01:29:31;;;;;;;;;19.50;14.75;;;;;-143.93;100.00;62969.28;4991904;28;8932;-67
2022/04/27 01:32:00;;;;;;;;;14.00;13.25;;;;;-143.93;100.00;62969.28;5021206;27;8787;-67
2022/04/27 01:34:26;;;;;;;;;15.25;13.50;;;;;-143.93;100.00;62969.28;5003485;28;8786;-67
2022/04/27 01:36:52;;;;;;;;;16.50;13.50;;;;;-143.93;100.00;62969.28;5001867;28;9621;-67
2022/04/27 01:39:17;;;;;;;;;19.25;14.50;;;;;-143.93;100.00;62969.28;5002028;28;8857;-67
2022/04/27 01:41:43;;;;;;;;;18.50;14.75;;;;;-143.93;100.00;62969.28;5004473;28;8825;-67
2022/04/27 01:44:08;;;;;;;;;22.50;16.00;;;;;-143.93;100.00;62969.28;4991438;28;8808;-67
2022/04/27 01:46:33;;;;;;;;;16.25;15.00;;;;;-143.93;100.00;62969.28;4993352;28;8832;-67
2022/04/27 01:49:00;;;;;;;;;19.75;17.75;;;;;-143.93;100.00;62969.28;4994936;28;8835;-67
2022/04/27 01:54:15;;;;;;;;;16.75;11.75;;;;;-143.93;100.00;62969.28;4993556;28;8813;-67
2022/04/27 01:56:45;;;;;;;;;19.75;15.50;;;;;-143.93;100.00;62969.28;4991833;28;8889;-67
2022/04/27 01:59:12;;;;;;;;;15.25;14.00;;;;;-143.93;100.00;62969.28;5017679;28;8852;-67
2022/04/27 02:01:37;;;;;;;;;21.00;17.75;;;;;-143.93;100.00;62969.28;4992698;28;8800;-67
2022/04/27 02:04:03;;;;;;;;;18.25;16.00;;;;;-143.93;100.00;62969.28;5002214;28;8876;-68
2022/04/27 02:06:29;;;;;;;;;19.75;14.50;;;;;-143.93;100.00;62969.28;5003218;28;8824;-68
2022/04/27 02:08:54;;;;;;;;;21.00;14.25;;;;;-143.93;100.00;62969.28;4993292;28;8910;-68
2022/04/27 02:11:25;;;;;;;;;19.50;14.00;;;;;-143.93;100.00;62969.28;4988558;28;8819;-67
2022/04/27 02:13:54;;;;;;;;;13.00;11.00;;;;;-143.93;100.00;62969.28;5007179;28;8906;-67
2022/04/27 02:16:22;;;;;;;;;16.50;13.00;;;;;-143.93;100.00;62969.28;5001139;28;8882;-67
2022/04/27 02:18:48;;;;;;;;;18.75;17.75;;;;;-143.93;100.00;62969.28;4993407;28;8827;-67
2022/04/27 02:21:14;;;;;;;;;18.00;15.00;;;;;-143.93;100.00;62969.28;4993238;28;8797;-67
2022/04/27 02:23:40;;;;;;;;;20.75;15.50;;;;;-143.93;100.00;62969.28;5004239;28;8817;-68
2022/04/27 02:26:05;;;;;;;;;13.00;13.00;;;;;-143.93;100.00;62969.28;5000094;28;8832;-67
2022/04/27 02:28:30;;;;;;;;;18.25;16.75;;;;;-143.93;100.00;62969.28;4992679;28;8808;-67
2022/04/27 02:30:55;;;;;;;;;22.25;20.25;;;;;-143.93;100.00;62969.28;4993109;28;8901;-68
2022/04/27 02:33:21;;;;;;;;;23.25;14.25;;;;;-143.93;100.00;62969.28;4993214;28;8894;-67
2022/04/27 02:35:46;;;;;;;;;22.00;19.75;;;;;-143.93;100.00;62969.28;5008378;28;8849;-67
2022/04/27 02:38:11;;;;;;;;;17.50;13.50;;;;;-143.93;100.00;62969.28;4989910;28;8899;-67
2022/04/27 02:40:37;;;;;;;;;22.25;17.75;;;;;-143.93;100.00;62969.28;4999290;28;8801;-67
2022/04/27 02:43:02;;;;;;;;;20.75;17.00;;;;;-143.93;100.00;62969.28;5022217;27;8837;-67
2022/04/27 02:45:27;;;;;;;;;26.50;19.25;;;;;-143.93;100.00;62969.28;4999794;28;8835;-67
2022/04/27 02:47:53;;;;;;;;;17.00;14.25;;;;;-143.93;100.00;62969.28;4992532;28;8802;-67
2022/04/27 02:53:02;;;;;;;;;19.00;14.25;;;;;-143.93;100.00;62969.28;4988010;28;8816;-67
2022/04/27 02:55:27;;;;;;;;;26.00;17.00;;;;;-143.93;100.00;62969.28;5002246;28;8860;-67
2022/04/27 02:57:53;;;;;;;;;19.00;15.50;;;;;-143.93;100.00;62969.28;5000737;28;9711;-67
2022/04/27 03:00:18;;;;;;;;;16.50;16.50;;;;;-143.93;100.00;62969.28;5002908;28;8821;-67
2022/04/27 03:02:43;;;;;;;;;16.00;14.00;;;;;-143.93;100.00;62969.28;5002706;28;8844;-67
2022/04/27 03:05:09;;;;;;;;;25.25;19.75;;;;;-143.93;100.00;62969.28;5003801;28;8840;-67
2022/04/27 03:07:35;;;;;;;;;30.25;17.25;;;;;-143.93;100.00;62969.28;5003041;28;8802;-68
2022/04/27 03:10:00;;;;;;;;;21.50;16.75;;;;;-143.93;100.00;62969.28;5000534;28;8912;-68
2022/04/27 03:12:26;;;;;;;;;13.50;10.25;;;;;-143.93;100.00;62969.28;5003855;28;8822;-68
2022/04/27 03:14:51;;;;;;;;;20.75;19.50;;;;;-143.93;100.00;62969.28;5004132;28;8832;-69
2022/04/27 03:17:17;;;;;;;;;24.25;19.25;;;;;-143.93;100.00;62969.28;4995309;28;8804;-67
2022/04/27 03:19:42;;;;;;;;;23.50;19.25;;;;;-143.93;100.00;62969.28;5058790;28;9007;-67
2022/04/27 03:22:08;;;;;;;;;26.00;19.00;;;;;-143.93;100.00;62969.28;5008075;27;8827;-68
2022/04/27 03:24:34;;;;;;;;;25.50;19.25;;;;;-143.93;100.00;62969.28;5000586;28;8800;-67
2022/04/27 03:27:00;;;;;;;;;24.75;18.25;;;;;-143.93;100.00;62969.28;4994623;28;8874;-67
2022/04/27 03:29:25;;;;;;;;;22.00;19.50;;;;;-143.93;100.00;62969.28;4991577;28;8809;-67
2022/04/27 03:31:50;;;;;;;;;29.75;22.00;;;;;-143.93;100.00;62969.28;4994897;28;8896;-68
2022/04/27 03:34:16;;;;;;;;;19.00;16.25;;;;;-143.93;100.00;62969.28;4995275;28;8811;-67
2022/04/27 03:36:41;;;;;;;;;20.25;18.50;;;;;-143.93;100.00;62969.28;4995310;28;8832;-68
2022/04/27 03:39:07;;;;;;;;;25.25;19.50;;;;;-143.93;100.00;62969.28;5004975;28;9638;-67
2022/04/27 03:41:32;;;;;;;;;25.00;16.00;;;;;-143.93;100.00;62969.28;4994784;28;8928;-67
2022/04/27 03:43:57;;;;;;;;;23.00;20.00;;;;;-143.93;100.00;62969.28;5002825;28;8906;-67
2022/04/27 03:46:23;;;;;;;;;24.50;19.25;;;;;-143.93;100.00;62969.28;4995313;28;9631;-67
2022/04/27 03:48:48;;;;;;;;;34.75;22.00;;;;;-143.93;100.00;62969.28;4996504;28;8869;-67
2022/04/27 03:51:14;;;;;;;;;28.75;20.00;;;;;-143.93;100.00;62969.28;5048387;27;8823;-67
2022/04/27 03:53:39;;;;;;;;;25.50;17.75;;;;;-143.93;100.00;62969.28;5004801;28;8841;-67
2022/04/27 03:56:07;;;;;;;;;26.50;18.25;;;;;-143.93;100.00;62969.28;5005923;28;8822;-67
2022/04/27 03:58:33;;;;;;;;;23.75;18.00;;;;;-143.93;100.00;62969.28;5007586;28;8821;-67
2022/04/27 04:00:59;;;;;;;;;25.75;22.75;;;;;-143.93;100.00;62969.28;5003269;28;8809;-67
2022/04/27 04:03:24;;;;;;;;;31.75;22.00;;;;;-143.93;100.00;62969.28;5003066;28;9589;-67
2022/04/27 04:05:49;;;;;;;;;23.25;17.50;;;;;-143.93;100.00;62969.28;5004178;28;8844;-67
2022/04/27 04:08:15;;;;;;;;;23.75;18.00;;;;;-143.93;100.00;62969.28;5006552;28;8909;-67
2022/04/27 04:10:40;;;;;;;;;33.00;22.50;;;;;-143.93;100.00;62969.28;5005459;28;8879;-67
2022/04/27 04:13:06;;;;;;;;;27.75;18.75;;;;;-143.93;100.00;62969.28;5002946;28;8822;-67
2022/04/27 04:15:32;;;;;;;;;33.75;25.50;;;;;-143.93;100.00;62969.28;5005900;28;8851;-67
2022/04/27 04:17:58;;;;;;;;;22.00;18.50;;;;;-143.93;100.00;62969.28;5005404;28;8915;-67
2022/04/27 04:20:23;;;;;;;;;26.50;19.75;;;;;-143.93;100.00;62969.28;4994823;28;8870;-67
2022/04/27 04:22:48;;;;;;;;;28.50;23.00;;;;;-143.93;100.00;62969.28;5067825;28;8883;-67
2022/04/27 04:30:44;;;;;;;;;35.50;26.00;;;;;-143.93;100.00;62969.28;4996261;28;8804;-67
2022/04/27 04:33:10;;;;;;;;;25.50;23.00;;;;;-143.93;100.00;62969.28;4994865;28;8867;-67
2022/04/27 04:35:36;;;;;;;;;21.25;19.25;;;;;-143.93;100.00;62969.28;4990914;28;8858;-67
2022/04/27 04:38:04;;;;;;;;;28.25;24.75;;;;;-143.93;100.00;62969.28;4992307;28;8784;-67
2022/04/27 04:40:29;;;;;;;;;26.00;20.50;;;;;-143.93;100.00;62969.28;4998273;28;8805;-67
2022/04/27 04:42:55;;;;;;;;;34.75;25.25;;;;;-143.93;100.00;62969.28;4997615;28;8804;-67
2022/04/27 04:45:20;;;;;;;;;30.75;21.25;;;;;-143.93;100.00;62969.28;4994511;28;8922;-67
2022/04/27 04:47:45;;;;;;;;;35.25;26.00;;;;;-143.93;100.00;62969.28;4993410;28;8821;-67
2022/04/27 04:50:12;;;;;;;;;28.50;23.25;;;;;-143.93;100.00;62969.28;4991223;28;8828;-67
2022/04/27 04:52:38;;;;;;;;;30.00;22.75;;;;;-143.93;100.00;62969.28;5010095;28;8898;-67
2022/04/27 04:55:04;;;;;;;;;30.50;24.75;;;;;-143.93;100.00;62969.28;4996146;28;8835;-67
2022/04/27 04:57:29;;;;;;;;;34.25;30.00;;;;;-143.93;100.00;62969.28;4994611;28;8922;-67
2022/04/27 04:59:55;;;;;;;;;29.75;23.50;;;;;-143.93;100.00;62969.28;5034896;27;8844;-67
2022/04/27 05:02:20;;;;;;;;;24.75;22.50;;;;;-143.93;100.00;62969.28;5006745;28;8815;-67
2022/04/27 05:04:46;;;;;;;;;27.50;25.50;;;;;-143.93;100.00;62969.28;5004915;28;8789;-67
2022/04/27 05:07:11;;;;;;;;;30.50;26.25;;;;;-143.93;100.00;62969.28;5003656;28;8891;-67
2022/04/27 05:09:36;;;;;;;;;33.50;25.00;;;;;-143.93;100.00;62969.28;5002133;28;8836;-67
2022/04/27 05:12:02;;;;;;;;;38.75;31.50;;;;;-143.93;100.00;62969.28;5002489;28;8816;-67
2022/04/27 05:14:28;;;;;;;;;31.50;25.50;;;;;-143.93;100.00;62969.28;5006089;28;8815;-67
2022/04/27 05:16:53;;;;;;;;;28.00;25.00;;;;;-143.93;100.00;62969.28;5004875;28;8817;-67
2022/04/27 05:19:18;;;;;;;;;30.75;23.00;;;;;-143.93;100.00;62969.28;5000946;28;9674;-67
2022/04/27 05:21:45;;;;;;;;;28.75;21.50;;;;;-143.93;100.00;62969.28;4998578;28;8840;-68
2022/04/27 05:24:11;;;;;;;;;34.00;25.25;;;;;-143.93;100.00;62969.28;4994448;28;8829;-68
2022/04/27 05:26:37;;;;;;;;;31.25;24.25;;;;;-143.93;100.00;62969.28;4991678;28;8811;-67
2022/04/27 05:31:55;;;;;;;;;32.75;28.50;;;;;-143.93;100.00;62969.28;5008630;28;8801;-68
2022/04/27 05:34:24;;;;;;;;;36.50;25.50;;;;;-143.93;100.00;62969.28;5002106;28;8814;-68
2022/04/27 05:36:50;;;;;;;;;36.50;27.00;;;;;-143.93;100.00;62969.28;5000726;28;8820;-68
2022/04/27 05:39:17;;;;;;;;;30.00;28.25;;;;;-143.93;100.00;62969.28;4994021;28;8859;-68
2022/04/27 05:41:42;;;;;;;;;34.25;28.00;;;;;-143.93;100.00;62969.28;4992275;28;8843;-68
2022/04/27 05:44:09;;;;;;;;;34.00;27.25;;;;;-143.93;100.00;62969.28;4992706;28;8920;-68
2022/04/27 05:46:41;;;;;;;;;29.50;25.75;;;;;-143.93;100.00;62969.28;5004261;28;8814;-68
2022/04/27 05:49:07;;;;;;;;;32.50;24.00;;;;;-143.93;100.00;62969.28;5001700;28;8858;-68
2022/04/27 05:51:32;;;;;;;;;37.25;27.25;;;;;-143.93;100.00;62969.28;5001829;28;8829;-67
2022/04/27 05:53:58;;;;;;;;;30.25;26.00;;;;;-143.93;100.00;62969.28;5003986;28;8838;-68
2022/04/27 05:56:24;;;;;;;;;35.75;27.25;;;;;-143.93;100.00;62969.28;4989369;28;8955;-68
2022/04/27 05:58:50;;;;;;;;;37.25;26.00;;;;;-143.93;100.00;62969.28;4992920;28;8861;-68
2022/04/27 06:01:16;;;;;;;;;39.00;31.50;;;;;-143.93;100.00;62969.28;4997348;28;8808;-68
2022/04/27 06:03:41;;;;;;;;;33.50;24.50;;;;;-143.93;100.00;62969.28;4996948;28;9614;-68
2022/04/27 06:06:07;;;;;;;;;36.75;28.75;;;;;-143.93;100.00;62969.28;5001644;28;8944;-68
2022/04/27 06:08:32;;;;;;;;;37.50;29.00;;;;;-143.93;100.00;62969.28;5012684;28;8817;-68
2022/04/27 06:10:58;;;;;;;;;28.25;24.00;;;;;-143.93;100.00;62969.28;5011399;28;8818;-69
2022/04/27 06:13:24;;;;;;;;;43.00;34.00;;;;;-143.93;100.00;62969.28;5008496;28;8825;-68
2022/04/27 06:15:50;;;;;;;;;34.00;27.00;;;;;-143.93;100.00;62969.28;4996869;28;8848;-68
2022/04/27 06:18:16;;;;;;;;;37.00;27.75;;;;;-143.93;100.00;62969.28;4995507;28;8812;-68
2022/04/27 06:20:42;;;;;;;;;37.25;30.50;;;;;-143.93;100.00;62969.28;5008344;28;8825;-69
2022/04/27 06:23:07;;;;;;;;;31.75;28.25;;;;;-143.93;100.00;62969.28;5005910;28;9545;-68
2022/04/27 06:25:34;;;;;;;;;34.00;25.00;;;;;-143.93;100.00;62969.28;4994761;28;8897;-68
2022/04/27 06:27:59;;;;;;;;;37.25;26.25;;;;;-143.93;100.00;62969.28;5000827;28;8813;-69
2022/04/27 06:30:25;;;;;;;;;28.50;24.50;;;;;-143.93;100.00;62969.28;5006166;28;9614;-68
2022/04/27 06:32:51;;;;;;;;;38.25;30.00;;;;;-143.93;100.00;62969.28;5001753;28;8827;-69
2022/04/27 06:35:17;;;;;;;;;37.00;30.00;;;;;-143.93;100.00;62969.28;5005176;28;9688;-68
2022/04/27 06:37:42;;;;;;;;;36.25;30.75;;;;;-143.93;100.00;62969.28;5003168;28;8815;-68
2022/04/27 06:40:09;;;;;;;;;40.00;31.75;;;;;-143.93;100.00;62969.28;5007246;28;8837;-68
2022/04/27 06:42:35;;;;;;;;;41.50;29.75;;;;;-143.93;100.00;62969.28;5001224;28;9608;-68
2022/04/27 06:45:01;;;;;;;;;37.25;27.50;;;;;-143.93;100.00;62969.28;5001029;28;8796;-68
2022/04/27 06:47:27;;;;;;;;;40.25;32.75;;;;;-143.93;100.00;62969.28;5005421;28;8794;-68
2022/04/27 06:49:52;;;;;;;;;41.25;28.50;;;;;-143.93;100.00;62969.28;5013783;28;9040;-69
2022/04/27 06:52:17;;;;;;;;;34.25;26.75;;;;;-143.93;100.00;62969.28;4992812;28;8847;-69
2022/04/27 06:54:43;;;;;;;;;38.25;30.25;;;;;-143.93;100.00;62969.28;5004369;28;8941;-69
2022/04/27 06:57:08;;;;;;;;;45.50;32.00;;;;;-143.93;100.00;62969.28;5013083;28;8849;-68
2022/04/27 06:59:33;;;;;;;;;39.00;32.25;;;;;-143.93;100.00;62969.28;5008268;28;8841;-69
2022/04/27 07:01:59;;;;;;;;;31.25;28.25;;;;;-143.93;100.00;62969.28;5010559;28;8831;-69
2022/04/27 07:04:25;;;;;;;;;50.00;36.75;;;;;-143.93;100.00;62969.28;5006326;28;8817;-69
2022/04/27 07:06:50;;;;;;;;;38.75;31.50;;;;;-143.93;100.00;62969.28;5005438;28;8864;-69
2022/04/27 07:09:16;;;;;;;;;39.25;31.00;;;;;-143.93;100.00;62969.28;5006787;28;8948;-68
2022/04/27 07:11:41;;;;;;;;;32.75;30.50;;;;;-143.93;100.00;62969.28;5017531;27;8941;-69
2022/04/27 07:14:08;;;;;;;;;41.00;30.00;;;;;-143.93;100.00;62969.28;5001912;28;8825;-69
2022/04/27 07:16:34;;;;;;;;;34.75;32.75;;;;;-143.93;100.00;62969.28;5005877;28;8833;-68
2022/04/27 07:18:59;;;;;;;;;40.00;31.50;;;;;-143.93;100.00;62969.28;5005170;28;8840;-69
2022/04/27 07:21:24;;;;;;;;;44.25;34.50;;;;;-143.93;100.00;62969.28;5004671;28;8829;-69
2022/04/27 07:23:49;;;;;;;;;41.75;29.75;;;;;-143.93;100.00;62969.28;5008211;28;8953;-68
2022/04/27 07:26:15;;;;;;;;;45.75;36.75;;;;;-143.93;100.00;62969.28;5011262;28;8825;-68
2022/04/27 07:28:41;;;;;;;;;40.75;33.25;;;;;-143.93;100.00;62969.28;5000721;28;8808;-68
2022/04/27 07:31:07;;;;;;;;;38.25;32.75;;;;;-143.93;100.00;62969.28;5006203;28;8829;-68
2022/04/27 07:33:32;;;;;;;;;32.25;30.00;;;;;-143.93;100.00;62969.28;5011675;28;8821;-69
2022/04/27 07:35:57;;;;;;;;;41.75;31.50;;;;;-143.93;100.00;62969.28;5002745;27;9709;-68
2022/04/27 07:38:23;;;;;;;;;39.50;34.00;;;;;-143.93;100.00;62969.28;5008137;28;8828;-68
2022/04/27 07:40:48;;;;;;;;;42.75;32.75;;;;;-143.93;100.00;62969.28;4996638;28;8859;-68
2022/04/27 07:43:14;;;;;;;;;37.50;29.50;;;;;-143.93;100.00;62969.28;5009824;28;8809;-67
2022/04/27 07:45:43;;;;;;;;;39.00;32.50;;;;;-143.93;100.00;62969.28;5007108;28;8820;-68
2022/04/27 07:48:09;;;;;;;;;38.25;33.25;;;;;-143.93;100.00;62969.28;5004461;27;9001;-68
2022/04/27 07:50:35;;;;;;;;;38.00;30.75;;;;;-143.93;100.00;62969.28;5003258;28;8851;-68
2022/04/27 07:53:00;;;;;;;;;48.50;34.00;;;;;-143.93;100.00;62969.28;4997206;28;8844;-68
2022/04/27 07:55:26;;;;;;;;;42.00;32.75;;;;;-143.93;100.00;62969.28;4994101;28;8869;-68
2022/04/27 07:57:51;;;;;;;;;35.25;32.25;;;;;-143.93;100.00;62969.28;5004184;28;8841;-68
2022/04/27 08:00:16;;;;;;;;;42.00;35.00;;;;;-143.93;100.00;62969.28;5003498;28;9665;-68
2022/04/27 08:02:42;;;;;;;;;39.50;31.75;;;;;-143.93;100.00;62969.28;4993758;28;8897;-68
2022/04/27 08:05:09;;;;;;;;;45.25;34.00;;;;;-143.93;100.00;62969.28;5029380;28;8845;-68
2022/04/27 08:07:43;;;;;;;;;38.25;31.50;;;;;-143.93;100.00;62969.28;5003972;28;8813;-68
2022/04/27 08:10:13;;;;;;;;;39.00;33.00;;;;;-143.93;100.00;62969.28;5002095;28;8939;-68
2022/04/27 08:12:39;;;;;;;;;59.50;42.00;;;;;-143.93;100.00;62969.28;5026195;28;8801;-69
2022/04/27 08:15:05;;;;;;;;;32.75;30.25;;;;;-143.93;100.00;62969.28;5002146;27;9878;-68
2022/04/27 08:17:31;;;;;;;;;42.75;35.00;;;;;-143.93;100.00;62969.28;5005962;28;8828;-68
2022/04/27 08:21:13;;;;;;;;;40.25;31.50;;;;;-143.93;100.00;62969.28;5002964;28;9537;-68
2022/04/27 08:22:41;;;;;;;;;45.25;36.75;;;;;-143.93;100.00;62969.28;4994267;28;8873;-68
2022/04/27 08:25:07;;;;;;;;;44.50;35.75;;;;;-143.93;100.00;62969.28;4993039;28;8859;-68
2022/04/27 08:27:32;;;;;;;;;38.25;34.50;;;;;-143.93;100.00;62969.28;4998057;28;8812;-69
2022/04/27 08:29:58;;;;;;;;;42.00;33.75;;;;;-143.93;100.00;62969.28;5000211;28;8844;-68
2022/04/27 08:32:23;;;;;;;;;32.50;31.00;;;;;-143.93;100.00;62969.28;4991948;28;10512;-68
2022/04/27 08:34:51;;;;;;;;;116.67;97.33;;;;;-143.93;100.00;62969.28;5080237;28;14966;-69
2022/04/27 08:37:16;;;;;;;;;44.25;33.00;;;;;-143.93;100.00;62969.28;5030694;28;11583;-69
2022/04/27 08:39:42;;;;;;;;;38.50;32.25;;;;;-143.93;100.00;62969.28;5009567;28;8775;-69
2022/04/27 08:42:09;;;;;;;;;39.00;35.25;;;;;-143.93;100.00;62969.28;5006979;28;8833;-69
2022/04/27 08:44:35;;;;;;;;;33.25;26.25;;;;;-143.93;100.00;62969.28;4991597;28;8801;-68
2022/04/27 08:47:04;;;;;;;;;40.00;31.75;;;;;-143.93;100.00;62969.28;5004820;28;8801;-69
2022/04/27 08:49:38;;;;;;;;;43.00;34.00;;;;;-143.93;100.00;62969.28;5069195;28;8829;-68
2022/04/27 08:52:04;;;;;;;;;38.50;33.25;;;;;-143.93;100.00;62969.28;5011925;27;8794;-68
2022/04/27 08:54:33;;;;;;;;;40.75;33.75;;;;;-143.93;100.00;62969.28;5000923;28;9530;-69
2022/04/27 08:56:59;;;;;;;;;37.50;31.00;;;;;-143.93;100.00;62969.28;4995207;28;8863;-68
2022/04/27 08:59:24;;;;;;;;;32.25;29.50;;;;;-143.93;100.00;62969.28;5005810;28;8946;-68
2022/04/27 09:01:50;;;;;;;;;38.50;32.50;;;;;-143.93;100.00;62969.28;5009086;28;8829;-68
2022/04/27 09:04:16;;;;;;;;;31.25;28.50;;;;;-143.93;100.00;62969.28;4992897;28;8852;-69
2022/04/27 09:06:42;;;;;;;;;36.00;27.00;;;;;-143.93;100.00;62969.28;4997348;28;8825;-68
2022/04/27 09:09:13;;;;;;;;;35.75;30.00;;;;;-143.93;100.00;62969.28;5002198;28;8820;-68
2022/04/27 09:11:39;;;;;;;;;33.25;29.25;;;;;-143.93;100.00;62969.28;5005026;27;8817;-69
2022/04/27 09:14:07;;;;;;;;;34.75;29.75;;;;;-143.93;100.00;62969.28;5005967;28;8837;-69
2022/04/27 09:22:11;;;;;;;;;38.25;31.00;;;;;-143.93;100.00;62969.28;5005966;28;8785;-69
2022/04/27 09:24:52;;;;;;;;;32.00;29.50;;;;;-143.93;100.00;62969.28;5031277;28;8775;-69
2022/04/27 09:27:19;;;;;;;;;32.50;29.75;;;;;-143.93;100.00;62969.28;5045499;27;8817;-69
2022/04/27 09:30:03;;;;;;;;;37.25;31.50;;;;;-143.93;100.00;62969.28;5005365;27;8813;-69
2022/04/27 09:32:30;;;;;;;;;36.75;31.75;;;;;-143.93;100.00;62969.28;4991446;28;8781;-69
2022/04/27 09:34:56;;;;;;;;;34.50;30.00;;;;;-143.93;100.00;62969.28;5005637;28;8802;-69
2022/04/27 09:37:30;;;;;;;;;31.75;29.50;;;;;-143.93;100.00;62969.28;5007302;28;9571;-69
2022/04/27 09:40:14;;;;;;;;;36.00;32.00;;;;;-143.93;100.00;62969.28;5002075;28;8813;-69
2022/04/27 09:42:46;;;;;;;;;33.50;31.00;;;;;-143.93;100.00;62969.28;5001379;28;8869;-69
2022/04/27 09:45:17;;;;;;;;;35.75;29.50;;;;;-143.93;100.00;62969.28;4993934;28;8894;-66
2022/04/27 09:47:55;;;;;;;;;32.75;28.75;;;;;-143.93;100.00;62969.28;4999067;28;8875;-67
2022/04/27 09:50:20;;;;;;;;;36.00;32.00;;;;;-143.93;100.00;62969.28;5005171;28;8817;-67
2022/04/27 09:52:47;;;;;;;;;35.50;31.50;;;;;-143.93;100.00;62969.28;4994660;28;8814;-68
2022/04/27 09:55:12;;;;;;;;;35.50;31.00;;;;;-143.93;100.00;62969.28;5024682;28;8815;-68
2022/04/27 09:57:40;;;;;;;;;35.25;31.00;;;;;-143.93;100.00;62969.28;5029935;27;8821;-67
2022/04/27 10:00:07;;;;;;;;;35.25;30.75;;;;;-143.93;100.00;62969.28;5016069;27;8824;-67
2022/04/27 10:02:34;;;;;;;;;35.25;30.25;;;;;-143.93;100.00;62969.28;4990741;28;8839;-67
2022/04/27 10:05:00;;;;;;;;;32.75;30.25;;;;;-143.93;100.00;62969.28;4997180;28;8813;-67
2022/04/27 10:07:27;;;;;;;;;29.50;29.25;;;;;-143.93;100.00;62969.28;5002949;28;8916;-67
2022/04/27 10:09:54;;;;;;;;;36.50;30.50;;;;;-143.93;100.00;62969.28;4996227;28;9668;-67
2022/04/27 10:12:19;;;;;;;;;33.00;30.00;;;;;-143.93;100.00;62969.28;4994377;28;8797;-68
2022/04/27 10:14:44;;;;;;;;;34.75;31.50;;;;;-143.93;100.00;62969.28;5003179;28;8835;-67
2022/04/27 10:17:12;;;;;;;;;34.00;30.00;;;;;-143.93;100.00;62969.28;5004535;28;8841;-67
2022/04/27 10:19:46;;;;;;;;;34.00;30.00;;;;;-143.93;100.00;62969.28;5004348;28;8819;-68
2022/04/27 10:22:26;;;;;;;;;31.00;28.00;;;;;-143.93;100.00;62969.28;5002875;28;8850;-68
2022/04/27 10:24:54;;;;;;;;;40.75;30.50;;;;;-143.93;100.00;62969.28;4996909;28;8792;-68
2022/04/27 10:27:21;;;;;;;;;31.50;29.00;;;;;-143.93;100.00;62969.28;4997784;28;8815;-67
2022/04/27 10:29:51;;;;;;;;;28.75;27.00;;;;;-143.93;100.00;62969.28;4990529;28;8905;-68
2022/04/27 10:32:48;;;;;;;;;33.25;30.00;;;;;-143.93;100.00;62969.28;5004338;28;8838;-68
2022/04/27 10:35:19;;;;;;;;;38.00;33.00;;;;;-143.93;100.00;62969.28;5005244;28;8855;-67
2022/04/27 10:37:54;;;;;;;;;35.25;30.25;;;;;-143.93;100.00;62969.28;5002977;28;9575;-68
2022/04/27 10:40:42;;;;;;;;;35.25;30.25;;;;;-143.93;100.00;62969.28;5001760;28;8896;-67
2022/04/27 10:43:07;;;;;;;;;29.00;25.75;;;;;-143.93;100.00;62969.28;5001250;27;8805;-67
2022/04/27 10:45:34;;;;;;;;;29.00;27.67;;;;;-143.93;100.00;62969.28;5001259;28;8961;-68
2022/04/27 10:48:03;;;;;;;;;36.50;28.50;;;;;-143.93;100.00;62969.28;5002932;28;11106;-67
2022/04/27 10:50:30;;;;;;;;;27.25;26.25;;;;;-143.93;100.00;62969.28;4989585;28;8828;-67
2022/04/27 10:53:13;;;;;;;;;24.00;23.00;;;;;-143.93;100.00;62969.28;4991111;27;8812;-68
2022/04/27 10:55:47;;;;;;;;;26.00;23.50;;;;;-143.93;100.00;62969.28;4992462;28;8935;-68
2022/04/27 10:58:22;;;;;;;;;32.75;29.50;;;;;-143.93;100.00;62969.28;5005833;28;8801;-68
2022/04/27 11:01:02;;;;;;;;;30.00;26.50;;;;;-143.93;100.00;62969.28;5000986;28;8805;-68
2022/04/27 11:03:28;;;;;;;;;30.50;26.50;;;;;-143.93;100.00;62969.28;5003709;28;8934;-68
2022/04/27 11:06:02;;;;;;;;;27.00;22.75;;;;;-143.93;100.00;62969.28;5001485;27;8828;-68
2022/04/27 11:08:46;;;;;;;;;26.00;20.75;;;;;-143.93;100.00;62969.28;4990370;28;8816;-68
2022/04/27 11:11:12;;;;;;;;;22.00;19.25;;;;;-143.93;100.00;62969.28;5004305;28;8896;-68
2022/04/27 11:13:38;;;;;;;;;24.00;20.75;;;;;-143.93;100.00;62969.28;4992892;28;8906;-68
2022/04/27 11:16:11;;;;;;;;;26.50;24.50;;;;;-143.93;100.00;62969.28;5014139;28;8829;-68
2022/04/27 11:18:59;;;;;;;;;29.50;24.75;;;;;-143.93;100.00;62969.28;5000474;28;8813;-68
2022/04/27 11:21:30;;;;;;;;;26.25;23.75;;;;;-143.93;100.00;62969.28;5084065;27;8917;-68